Otros METAR

 

LEAS - Asturias/Aviles, Spain
Distance from station: NNE 0km
Actualización: 24/05/2024 09:00
Light drizzle, Muy nuboso
Light drizzle, Muy nuboso
 Viento del SE
Viento: SE 6 km/h
Temperatura: 13°C
Rocío: 11°C
Humedad: 88%
Barómetro: 1019 hPa
Resumen: Light Drizzle
Clouds: Muy nuboso
Visibility: 10 km
Cloud details: Algunas nubes 427 m
Muy nuboso 549 m
Muy nuboso 1280 m
2024/05/24 07:00 LEAS 240700Z 13003KT 090V170 9999 -DZ FEW014 BKN018 BKN042 13/11 Q1019 NOSIG
LELN - Leon/Virgen Cami, Spain
Distance from station: SSE 113km
Actualización: 24/05/2024 09:00
Despejado
Despejado
 Viento del varies
Viento: varies 2 km/h
Temperatura: 11°C
Rocío: 6°C
Humedad: 72%
Barómetro: 1019 hPa
Resumen: Despejado
Visibility: greater than 10 km
2024/05/24 07:00 LELN 240700Z VRB01KT CAVOK 11/06 Q1019
 
LEXJ - Santander/Paraya, Spain
Distance from station: E 180km
Actualización: 24/05/2024 09:00
Muy nuboso
Muy nuboso
 Viento del calm
Viento: Calma
Temperatura: 13°C
Rocío: 10°C
Humedad: 82%
Barómetro: 1020 hPa
Clouds: Muy nuboso
Visibility: 10 km
Cloud details: Algunas nubes 914 m
Muy nuboso 1676 m
2024/05/24 07:00 LEXJ 240700Z 00000KT 9999 FEW030 BKN055 13/10 Q1020
LECO - La Coruna/Alvedr, Spain
Distance from station: O 191km
Actualización: 24/05/2024 09:00

 Viento del S
Viento: S 6 km/h
Visibility: 1 km
2024/05/24 07:00 LECO 240700Z 17003KT 0900 0150 R21/0450N R03/0225N FG VV002 08/08 Q1019 BECMG 1500 BCFG
 
LEST - Santiago/Labacol, Spain
Distance from station: OSO 207km
Actualización: 24/05/2024 09:00
Despejado
Despejado
 Viento del E
Viento: E 9 km/h
Temperatura: 10°C
Wind Chill: 9°C
Rocío: 8°C
Humedad: 88%
Barómetro: 1018 hPa
Resumen: Despejado
Visibility: greater than 10 km
2024/05/24 07:00 LEST 240700Z 08005KT 020V120 CAVOK 10/08 Q1018 NOSIG
LEVD - Valladolid(Mil/C, Spain
Distance from station: SSE 227km
Actualización: 24/05/2024 09:00
Despejado
Despejado
 Viento del ENE
Viento: ENE 11 km/h
Temperatura: 9°C
Wind Chill: 7°C
Rocío: 7°C
Humedad: 87%
Barómetro: 1018 hPa
Resumen: Despejado
Visibility: greater than 10 km
2024/05/24 07:00 LEVD 240700Z 07006KT 030V110 CAVOK 09/07 Q1018 NOSIG
 
LEBG - Burgos/Villafria, Spain
Distance from station: ESE 238km
Actualización: 24/05/2024 09:00
Despejado
Despejado
 Viento del NE
Viento: NE 9 km/h
Temperatura: 9°C
Wind Chill: 7°C
Rocío: 6°C
Humedad: 82%
Barómetro: 1019 hPa
Resumen: Despejado
Visibility: greater than 10 km
2024/05/24 07:00 LEBG 240700Z 05005KT 020V100 CAVOK 09/06 Q1019
LEBB - Bilbao/Sondica, Spain
Distance from station: E 254km
Actualización: 24/05/2024 09:00
Algunas nubes
Algunas nubes
 Viento del E
Viento: E 6 km/h
Temperatura: 13°C
Rocío: 11°C
Humedad: 88%
Barómetro: 1020 hPa
Clouds: Algunas nubes
Visibility: 10 km
Cloud details: Algunas nubes 762 m
2024/05/24 07:00 LEBB 240700Z 10003KT 050V130 9999 FEW025 13/11 Q1020 NOSIG
 
LEVX - Vigo/Peinador, Spain
Distance from station: SO 257km
Actualización: 24/05/2024 09:00
Despejado
Despejado
 Viento del S
Viento: S 9 km/h
Temperatura: 10°C
Wind Chill: 9°C
Rocío: 9°C
Humedad: 94%
Barómetro: 1016 hPa
Resumen: Despejado
Visibility: greater than 10 km
2024/05/24 07:00 LEVX 240700Z 19005KT 130V240 CAVOK 10/09 Q1016 NOSIG
LEVT - Vitoria, Spain
Distance from station: ESE 280km
Actualización: 24/05/2024 09:00
Niebla, Muy nuboso
Niebla, Muy nuboso
 Viento del NE
Viento: NE 6 km/h
Temperatura: 7°C
Rocío: 7°C
Humedad: 100%
Barómetro: 1020 hPa
Resumen: Niebla
Clouds: Muy nuboso
Visibility: 1 km
Cloud details: Muy nuboso 91 m
2024/05/24 07:00 LEVT 240700Z 04003KT 320V070 0700 R04/1900N R22/0800U FG BKN003 07/07 Q1020
 
LESA - Salamanca (civ/M, Spain
Distance from station: S 294km
Actualización: 24/05/2024 09:00
Despejado
Despejado
 Viento del calm
Viento: Calma
Temperatura: 12°C
Rocío: 7°C
Humedad: 72%
Barómetro: 1018 hPa
Resumen: Despejado
Visibility: greater than 10 km
2024/05/24 07:00 LESA 240700Z 00000KT CAVOK 12/07 Q1018
LELO - Logrono/Agoncill, Spain
Distance from station: ESE 327km
Actualización: 24/05/2024 09:00
Algunas nubes
Algunas nubes
 Viento del calm
Viento: Calma
Temperatura: 11°C
Rocío: 7°C
Humedad: 77%
Barómetro: 1020 hPa
Clouds: Algunas nubes
Visibility: 10 km
Cloud details: Algunas nubes 1097 m
2024/05/24 07:00 LELO 240700Z 00000KT 9999 FEW036 11/07 Q1020
 
LPPR - Porto/Pedras Rub, Portugal
Distance from station: SO 338km
Actualización: 24/05/2024 09:00
Despejado
Despejado
 Viento del N
Viento: N 6 km/h
Temperatura: 13°C
Rocío: 12°C
Humedad: 94%
Barómetro: 1016 hPa
Resumen: Despejado
Visibility: greater than 10 km
2024/05/24 07:00 LPPR 240700Z 36003KT 340V070 CAVOK 13/12 Q1016
LESO - San Sebastian/Fu, Spain
Distance from station: E 343km
Actualización: 24/05/2024 09:00
Algunas nubes
Algunas nubes
 Viento del S
Viento: S 7 km/h
Temperatura: 14°C
Rocío: 10°C
Humedad: 77%
Barómetro: 1020 hPa
Clouds: Algunas nubes
Visibility: 10 km
Cloud details: Algunas nubes 914 m
2024/05/24 07:00 LESO 240700Z 17004KT 9999 FEW030 14/10 Q1020
 
LFBZ - Biarritz/Anglet, France
Distance from station: E 363km
Actualización: 24/05/2024 09:00
Despejado
Despejado
 Viento del SO
Viento: SO 7 km/h
Temperatura: 14°C
Rocío: 10°C
Humedad: 77%
Barómetro: 1020 hPa
Clouds: Despejado
Visibility: 10 km
2024/05/24 07:00 LFBZ 240700Z AUTO 22004KT 180V270 9999 NCD 14/10 Q1020 TEMPO BKN014
LPOV - Ovar Mil, Portugal
Distance from station: SO 365km
Actualización: 24/05/2024 09:00
Despejado
Despejado
 Viento del varies
Viento: varies 2 km/h
Temperatura: 12°C
Rocío: 11°C
Humedad: 94%
Barómetro: 1016 hPa
Resumen: Despejado
Visibility: greater than 10 km
2024/05/24 07:00 LPOV 240700Z VRB01KT CAVOK 12/11 Q1016
 
LEPP - Pamplona/Noain, Spain
Distance from station: ESE 366km
Actualización: 24/05/2024 09:00
Despejado
Despejado
 Viento del NE
Viento: NE 2 km/h
Temperatura: 11°C
Rocío: 6°C
Humedad: 72%
Barómetro: 1020 hPa
Resumen: Despejado
Visibility: greater than 10 km
2024/05/24 07:00 LEPP 240700Z 04001KT CAVOK 11/06 Q1020
LECV - Madri-Colmenar, Spain
Distance from station: SSE 372km
Actualización: 24/05/2024 09:00
Despejado
Despejado
 Viento del varies
Viento: varies 2 km/h
Temperatura: 14°C
Rocío: 7°C
Humedad: 63%
Barómetro: 1018 hPa
Resumen: Despejado
Visibility: greater than 10 km
2024/05/24 07:00 LECV 240700Z VRB01KT CAVOK 14/07 Q1018
 
LFBY - Dax/Seyresse, France
Distance from station: E 400km
Actualización: 24/05/2024 09:00

 Viento del varies
Viento: varies 6 km/h
Temperatura: 13°C
Rocío: 11°C
Humedad: 88%
Barómetro: 1020 hPa
Visibility: 10 km
2024/05/24 07:00 LFBY 240700Z AUTO VRB03KT 9999 // ////// 13/11 Q1020
LEVS - Madrid/Cuatro Vi, Spain
Distance from station: SSE 401km
Actualización: 24/05/2024 09:00
Despejado
Despejado
 Viento del NNE
Viento: NNE 6 km/h
Temperatura: 15°C
Rocío: 7°C
Humedad: 59%
Barómetro: 1018 hPa
Resumen: Despejado
Visibility: greater than 10 km
2024/05/24 07:00 LEVS 240700Z 03003KT 330V110 CAVOK 15/07 Q1018